Time;durP1;ratioP1;P1;durP2;ratioP2;P2;SDS_P1;SDS_P2;PMS_P1;PMS_P2;Temp;Humidity;BMP_temperature;BMP_pressure;BME280_temperature;BME280_humidity;BME280_pressure;Samples;Min_cycle;Max_cycle;Signal;HPM_P1;HPM_P2
2022/02/09 05:01:38;;;;;;;26.73;13.80;;;8.60;99.90;;;;;;5560110;23;20260;-66
2022/02/09 05:04:27;;;;;;;24.25;12.90;;;8.60;99.90;;;;;;4938811;29;20237;-67
2022/02/09 05:18:08;;;;;;;22.00;13.32;;;8.60;99.90;;;;;;4952969;29;20401;-67
2022/02/09 05:23:41;;;;;;;25.52;15.30;;;8.60;99.90;;;;;;4952710;28;20232;-68
2022/02/09 05:26:19;;;;;;;31.35;14.45;;;8.60;99.90;;;;;;4952883;29;20553;-66
2022/02/09 05:28:46;;;;;;;24.25;14.43;;;8.60;99.90;;;;;;4953584;29;20226;-69
2022/02/09 05:31:13;;;;;;;23.95;14.43;;;8.60;99.90;;;;;;4941457;28;20690;-67
2022/02/09 05:33:41;;;;;;;29.52;15.25;;;8.60;99.90;;;;;;4950735;29;20205;-67
2022/02/09 05:36:08;;;;;;;32.50;15.13;;;8.60;99.90;;;;;;4945573;29;20253;-67
2022/02/09 05:38:34;;;;;;;25.90;15.15;;;8.60;99.90;;;;;;4942249;29;20672;-68
2022/02/09 05:41:01;;;;;;;26.02;14.05;;;8.60;99.90;;;;;;4952568;28;20229;-68
2022/02/09 05:43:28;;;;;;;26.10;15.35;;;8.60;99.90;;;;;;4952755;29;20205;-68
2022/02/09 05:46:18;;;;;;;24.05;13.25;;;8.60;99.90;;;;;;4952634;29;20212;-69
2022/02/09 05:51:34;;;;;;;28.70;14.93;;;8.60;99.90;;;;;;4950976;28;20243;-67
2022/02/09 05:54:19;;;;;;;27.13;13.27;;;8.60;99.90;;;;;;4952235;29;20213;-67
2022/02/09 05:56:48;;;;;;;22.88;13.18;;;8.60;99.90;;;;;;4951962;29;20216;-68
2022/02/09 05:59:28;;;;;;;30.10;15.90;;;8.60;99.90;;;;;;4953299;29;20205;-68
2022/02/09 06:01:56;;;;;;;27.13;13.98;;;8.60;99.90;;;;;;4951967;28;20319;-68
2022/02/09 06:04:24;;;;;;;25.00;15.15;;;8.60;99.90;;;;;;4938822;29;20590;-68
2022/02/09 06:06:51;;;;;;;25.58;14.43;;;8.60;99.90;;;;;;4947680;29;20216;-69
2022/02/09 06:09:18;;;;;;;23.80;13.85;;;8.60;99.90;;;;;;4952598;28;20205;-68
2022/02/09 06:11:48;;;;;;;23.35;12.90;;;8.60;99.90;;;;;;4943432;28;20252;-68
2022/02/09 06:14:33;;;;;;;23.70;14.07;;;8.60;99.90;;;;;;4952496;29;20205;-67
2022/02/09 06:19:48;;;;;;;21.90;13.30;;;8.60;99.90;;;;;;4952300;29;20315;-69
2022/02/09 06:22:15;;;;;;;24.10;12.95;;;8.60;99.90;;;;;;4951799;28;20235;-70
2022/02/09 06:24:42;;;;;;;22.23;12.73;;;8.60;99.90;;;;;;4953068;29;20284;-68
2022/02/09 06:27:09;;;;;;;22.10;14.00;;;8.70;99.90;;;;;;4952075;29;20303;-68
2022/02/09 06:29:37;;;;;;;22.90;12.93;;;8.60;99.90;;;;;;4952092;28;20299;-69
2022/02/09 06:32:08;;;;;;;17.92;11.65;;;8.60;99.90;;;;;;4949058;28;20224;-69
2022/02/09 06:34:35;;;;;;;20.33;12.50;;;8.70;99.90;;;;;;4952240;28;20206;-68
2022/02/09 06:37:13;;;;;;;21.17;12.73;;;8.70;99.90;;;;;;4933628;29;20214;-69
2022/02/09 06:39:43;;;;;;;20.85;11.65;;;8.70;99.90;;;;;;4950642;29;20209;-69
2022/02/09 06:42:10;;;;;;;23.50;12.20;;;8.70;99.90;;;;;;4951882;28;20240;-69
2022/02/09 06:44:37;;;;;;;23.10;12.15;;;8.70;99.90;;;;;;4951372;28;20306;-68
2022/02/09 06:47:04;;;;;;;17.40;11.90;;;8.70;99.90;;;;;;4952189;29;20209;-68
2022/02/09 06:49:33;;;;;;;15.55;10.80;;;8.70;99.90;;;;;;4951557;28;20204;-69
2022/02/09 06:52:00;;;;;;;21.60;12.43;;;8.70;99.90;;;;;;4939526;29;20222;-68
2022/02/09 06:54:31;;;;;;;16.08;11.65;;;8.70;99.90;;;;;;4949159;29;20279;-68
2022/02/09 06:57:04;;;;;;;20.75;14.15;;;8.70;99.90;;;;;;4933170;29;20237;-68
2022/02/09 06:59:31;;;;;;;28.98;16.27;;;8.70;99.90;;;;;;4947810;28;20295;-69
2022/02/09 07:02:02;;;;;;;21.33;14.55;;;8.60;99.90;;;;;;4952563;29;20236;-68
2022/02/09 07:04:29;;;;;;;19.63;12.00;;;8.70;99.90;;;;;;4956295;28;20222;-69
2022/02/09 07:06:56;;;;;;;16.67;11.85;;;8.70;99.90;;;;;;4948329;28;20575;-69
2022/02/09 07:09:23;;;;;;;19.73;11.85;;;8.60;99.90;;;;;;4956357;28;20303;-69
2022/02/09 07:11:51;;;;;;;15.68;10.45;;;8.70;99.90;;;;;;4954906;28;20225;-68
2022/02/09 07:14:22;;;;;;;13.13;10.18;;;8.60;99.90;;;;;;4955369;29;20628;-69
2022/02/09 07:16:49;;;;;;;16.25;12.50;;;8.70;99.90;;;;;;4955282;29;20615;-68
2022/02/09 07:19:16;;;;;;;20.45;12.65;;;8.60;99.90;;;;;;4949911;29;20224;-68
2022/02/09 07:21:43;;;;;;;19.52;11.80;;;8.60;99.90;;;;;;4955283;28;20248;-69
2022/02/09 07:24:13;;;;;;;15.30;10.73;;;8.70;99.90;;;;;;4955164;28;20209;-68
2022/02/09 07:26:49;;;;;;;14.65;10.00;;;8.70;99.90;;;;;;4945101;28;20693;-68
2022/02/09 07:29:19;;;;;;;20.98;11.40;;;8.70;99.90;;;;;;4936892;29;20217;-69
2022/02/09 07:31:46;;;;;;;15.90;11.75;;;8.70;99.90;;;;;;4942229;29;20329;-68
2022/02/09 07:34:14;;;;;;;15.23;10.95;;;8.70;99.90;;;;;;4955035;28;20245;-69
2022/02/09 07:36:44;;;;;;;16.10;11.05;;;8.70;99.90;;;;;;4950171;28;20261;-68
2022/02/09 07:39:11;;;;;;;16.33;10.93;;;8.70;99.90;;;;;;4949304;29;20218;-70
2022/02/09 07:41:40;;;;;;;12.80;9.00;;;8.70;99.90;;;;;;4940392;28;20673;-68
2022/02/09 07:44:17;;;;;;;13.15;9.95;;;8.70;99.90;;;;;;4955083;28;20568;-69
2022/02/09 07:47:07;;;;;;;9.98;8.95;;;8.70;99.90;;;;;;4954904;28;20696;-69
2022/02/09 07:49:52;;;;;;;12.75;9.50;;;8.70;99.90;;;;;;4939719;28;20363;-69
2022/02/09 07:52:25;;;;;;;10.82;9.63;;;8.80;99.90;;;;;;4954818;28;20223;-68
2022/02/09 07:54:54;;;;;;;11.70;9.40;;;8.80;99.90;;;;;;4954374;29;20342;-68
2022/02/09 07:57:21;;;;;;;15.52;10.80;;;8.80;99.90;;;;;;4954661;28;20206;-68
2022/02/09 07:59:48;;;;;;;14.63;9.18;;;8.80;99.90;;;;;;4953308;28;20209;-70
2022/02/09 08:02:16;;;;;;;10.93;8.60;;;8.80;99.90;;;;;;4954321;28;20240;-68
2022/02/09 08:04:42;;;;;;;10.20;8.57;;;8.80;99.90;;;;;;4949263;28;20205;-68
2022/02/09 08:07:09;;;;;;;11.75;8.50;;;8.80;99.90;;;;;;4939863;29;20273;-69
2022/02/09 08:09:39;;;;;;;14.85;10.50;;;8.80;99.90;;;;;;4952602;29;20214;-67
2022/02/09 08:20:42;;;;;;;7.65;6.95;;;8.80;99.90;;;;;;4947659;28;20224;-68
2022/02/09 08:23:40;;;;;;;7.50;6.75;;;8.90;99.90;;;;;;4954446;28;20303;-69
2022/02/09 08:26:43;;;;;;;9.10;6.80;;;8.90;99.90;;;;;;4948893;28;20973;-69
2022/02/09 08:29:19;;;;;;;8.10;6.90;;;8.90;99.90;;;;;;4944901;29;20272;-68
2022/02/09 08:32:26;;;;;;;6.68;5.75;;;8.90;99.90;;;;;;4948698;28;20236;-68
2022/02/09 08:34:37;;;;;;;7.05;6.13;;;8.90;99.90;;;;;;4948223;29;20198;-69
2022/02/09 08:37:05;;;;;;;7.80;6.60;;;8.90;99.90;;;;;;4952208;29;20284;-69
2022/02/09 08:39:32;;;;;;;7.55;6.43;;;8.90;99.90;;;;;;4954217;28;20202;-70
2022/02/09 08:41:58;;;;;;;9.30;5.93;;;8.90;99.90;;;;;;4952431;28;20229;-69
2022/02/09 08:44:25;;;;;;;7.22;6.63;;;9.00;99.90;;;;;;4952791;29;20263;-68
2022/02/09 08:46:52;;;;;;;6.93;6.22;;;9.00;99.90;;;;;;4945791;29;20254;-68
2022/02/09 08:49:19;;;;;;;7.15;6.55;;;9.00;99.90;;;;;;4946795;29;20213;-70
2022/02/09 08:51:47;;;;;;;6.28;5.75;;;9.10;99.90;;;;;;4953656;28;20283;-69
2022/02/09 08:54:15;;;;;;;6.47;5.78;;;9.10;99.90;;;;;;4954243;29;20275;-69
2022/02/09 08:56:42;;;;;;;5.82;5.40;;;9.10;99.90;;;;;;4953814;29;20209;-69
2022/02/09 08:59:09;;;;;;;6.25;5.68;;;9.10;99.90;;;;;;4953982;29;20843;-70
2022/02/09 09:01:39;;;;;;;5.07;4.78;;;9.10;99.90;;;;;;4952930;28;20245;-69
2022/02/09 09:04:15;;;;;;;6.18;5.70;;;9.10;99.90;;;;;;4935769;29;20306;-70
2022/02/09 09:06:45;;;;;;;6.45;5.57;;;9.10;99.90;;;;;;4946401;29;20497;-69
2022/02/09 09:09:26;;;;;;;5.63;5.13;;;9.10;99.90;;;;;;4951241;29;20289;-70
2022/02/09 09:14:49;;;;;;;5.53;5.03;;;9.10;99.90;;;;;;4952472;28;20229;-69
2022/02/09 09:59:31;;;;;;;5.40;4.90;;;9.80;99.90;;;;;;4952988;29;20586;-69
2022/02/09 10:01:56;;;;;;;6.15;5.75;;;9.90;99.90;;;;;;4951680;28;20249;-68
2022/02/09 10:35:18;;;;;;;5.47;5.18;;;10.40;99.90;;;;;;4932523;29;20232;-68
2022/02/09 10:37:45;;;;;;;4.30;4.10;;;10.40;99.90;;;;;;4933337;29;20649;-66
2022/02/09 10:40:28;;;;;;;4.88;4.47;;;10.50;99.90;;;;;;4932914;29;20265;-68
2022/02/09 10:42:55;;;;;;;4.72;4.43;;;10.60;99.90;;;;;;4943917;29;20225;-68
2022/02/09 10:45:33;;;;;;;4.95;4.53;;;10.70;99.90;;;;;;4949920;29;20205;-67
2022/02/09 10:48:02;;;;;;;4.68;4.35;;;10.70;99.90;;;;;;4943067;29;20217;-68
2022/02/09 10:50:33;;;;;;;5.38;4.40;;;10.80;99.90;;;;;;4949980;28;20264;-67
2022/02/09 10:53:01;;;;;;;4.60;4.30;;;10.70;99.90;;;;;;4952109;29;20320;-69
2022/02/09 10:55:31;;;;;;;4.20;4.00;;;10.70;99.90;;;;;;4936235;29;20733;-68
2022/02/09 10:57:58;;;;;;;3.97;3.60;;;10.70;99.90;;;;;;4943403;29;20239;-67
2022/02/09 11:00:25;;;;;;;3.60;3.40;;;10.70;99.90;;;;;;4948118;28;20304;-68
2022/02/09 11:02:52;;;;;;;5.13;4.68;;;10.60;99.90;;;;;;4947243;29;20228;-69
2022/02/09 11:05:21;;;;;;;4.38;4.07;;;10.60;99.90;;;;;;4939470;29;20234;-67
2022/02/09 11:07:48;;;;;;;4.82;4.43;;;10.60;99.90;;;;;;4945995;29;20257;-68
2022/02/09 11:10:15;;;;;;;4.25;3.92;;;10.60;99.90;;;;;;4945509;28;20291;-68
2022/02/09 11:12:43;;;;;;;4.78;4.47;;;10.60;99.90;;;;;;4940993;29;20213;-67
2022/02/09 11:15:11;;;;;;;3.65;3.45;;;10.70;99.90;;;;;;4951125;29;20263;-68
2022/02/09 11:17:40;;;;;;;4.70;4.30;;;10.70;99.90;;;;;;4944378;29;20683;-68
2022/02/09 11:20:10;;;;;;;4.68;4.32;;;10.80;99.90;;;;;;4936708;29;20206;-69
2022/02/09 11:22:46;;;;;;;6.45;5.95;;;10.80;99.90;;;;;;4950622;29;20729;-67
2022/02/09 11:25:18;;;;;;;4.90;4.50;;;10.70;99.90;;;;;;4951549;28;20272;-68
2022/02/09 11:27:56;;;;;;;4.13;3.92;;;10.70;99.90;;;;;;4950804;29;20209;-68
2022/02/09 11:30:31;;;;;;;4.03;3.72;;;10.70;99.90;;;;;;4951274;28;20212;-68
2022/02/09 11:33:06;;;;;;;4.55;4.25;;;10.70;99.90;;;;;;4951618;29;20208;-67
2022/02/09 11:35:42;;;;;;;5.22;3.53;;;10.60;99.90;;;;;;4951964;28;20216;-67
2022/02/09 11:38:19;;;;;;;3.10;3.00;;;10.60;99.90;;;;;;4951725;29;20212;-68
2022/02/09 11:41:02;;;;;;;4.00;3.70;;;10.60;99.90;;;;;;4950221;28;20709;-68
2022/02/09 11:43:41;;;;;;;6.80;4.55;;;10.60;99.90;;;;;;4944810;29;20648;-67
2022/02/09 11:46:34;;;;;;;3.80;3.50;;;10.60;99.90;;;;;;4952413;28;20212;-68
2022/02/09 11:56:25;;;;;;;4.63;3.15;;;10.50;99.90;;;;;;4955191;28;20227;-68
2022/02/09 12:10:15;;;;;;;2.88;2.78;;;10.70;99.90;;;;;;4914040;29;20747;-68
2022/02/09 12:12:46;;;;;;;3.72;3.42;;;10.70;99.90;;;;;;4943175;29;20263;-69
2022/02/09 12:15:44;;;;;;;3.10;2.90;;;10.70;99.90;;;;;;4943612;29;20228;-70
2022/02/09 12:18:24;;;;;;;3.80;3.50;;;10.60;99.90;;;;;;4954663;28;20209;-69
2022/02/09 12:21:01;;;;;;;3.60;3.28;;;10.60;99.90;;;;;;4954025;28;20237;-68
2022/02/09 12:23:36;;;;;;;3.30;3.10;;;10.70;99.90;;;;;;4943940;29;20230;-68
2022/02/09 12:26:12;;;;;;;3.30;3.10;;;10.70;99.90;;;;;;4952985;28;20519;-68
2022/02/09 12:28:43;;;;;;;3.65;3.40;;;10.70;99.90;;;;;;4952874;29;20585;-68
2022/02/09 12:31:13;;;;;;;3.83;3.50;;;10.70;99.90;;;;;;4952776;28;20224;-68
2022/02/09 12:33:43;;;;;;;3.28;3.08;;;10.60;99.90;;;;;;4954068;29;20224;-68
2022/02/09 12:36:16;;;;;;;3.95;3.65;;;10.70;99.90;;;;;;4935723;29;20214;-68
2022/02/09 12:38:43;;;;;;;3.08;2.97;;;10.70;99.90;;;;;;4944330;29;20209;-69
2022/02/09 12:41:15;;;;;;;3.70;3.50;;;10.70;99.90;;;;;;4951225;28;21774;-68
2022/02/09 12:44:07;;;;;;;3.60;3.45;;;10.70;99.90;;;;;;4943264;28;20981;-68
2022/02/09 12:46:37;;;;;;;3.67;3.47;;;10.70;99.90;;;;;;4945049;28;20216;-68
2022/02/09 12:49:08;;;;;;;4.13;3.72;;;10.70;99.90;;;;;;4945931;28;21602;-68
2022/02/09 12:51:35;;;;;;;4.13;3.72;;;10.60;99.90;;;;;;4949321;28;20288;-69
2022/02/09 12:54:02;;;;;;;4.15;3.95;;;10.60;99.90;;;;;;4949821;29;20224;-68
2022/02/09 12:56:30;;;;;;;3.65;3.45;;;10.60;99.90;;;;;;4949772;28;20212;-67
2022/02/09 12:59:04;;;;;;;2.90;2.80;;;10.60;99.90;;;;;;4950536;28;20236;-68
2022/02/09 13:01:48;;;;;;;4.57;4.30;;;10.70;99.90;;;;;;4935440;29;20605;-68
2022/02/09 13:04:37;;;;;;;4.10;3.90;;;10.70;99.90;;;;;;4941200;29;20228;-69
2022/02/09 13:07:08;;;;;;;3.70;3.50;;;10.70;99.90;;;;;;4951546;29;20213;-68
2022/02/09 13:09:35;;;;;;;4.20;4.00;;;10.70;99.90;;;;;;4952238;28;20208;-70
2022/02/09 13:12:03;;;;;;;3.63;3.42;;;10.70;99.90;;;;;;4952530;28;20225;-69
2022/02/09 13:14:35;;;;;;;4.43;4.13;;;10.80;99.90;;;;;;4947892;29;20325;-69
2022/02/09 14:17:17;;;;;;;4.20;3.72;;;10.60;99.90;;;;;;4951354;29;20279;-68
2022/02/09 14:52:50;;;;;;;4.40;4.00;;;10.00;99.90;;;;;;4943430;29;20291;-67
2022/02/09 14:55:42;;;;;;;6.22;4.20;;;10.00;99.90;;;;;;4935777;29;20637;-67
2022/02/09 14:58:13;;;;;;;4.65;4.25;;;9.90;99.90;;;;;;4949671;29;20205;-66
2022/02/09 15:00:52;;;;;;;5.13;4.82;;;9.90;99.90;;;;;;4950440;28;20233;-67
2022/02/09 15:03:38;;;;;;;5.53;5.03;;;9.90;99.90;;;;;;4941689;29;20261;-67
2022/02/09 15:06:27;;;;;;;4.93;4.63;;;9.90;99.90;;;;;;4935774;29;20213;-67
2022/02/09 15:09:00;;;;;;;5.70;5.25;;;9.90;99.90;;;;;;4950870;29;20236;-67
2022/02/09 15:11:32;;;;;;;5.80;5.25;;;9.90;99.90;;;;;;4950179;28;20236;-68
2022/02/09 15:14:15;;;;;;;6.88;4.82;;;9.90;99.90;;;;;;4945870;28;20213;-68
2022/02/09 15:16:54;;;;;;;5.28;4.80;;;9.80;99.90;;;;;;4939815;29;20214;-69
2022/02/09 15:19:31;;;;;;;4.60;4.30;;;9.80;99.90;;;;;;4952050;28;20205;-68
2022/02/09 15:22:03;;;;;;;6.22;4.60;;;9.80;99.90;;;;;;4941126;29;20236;-67
2022/02/09 15:24:37;;;;;;;4.25;3.95;;;9.80;99.90;;;;;;4955340;29;20229;-67
2022/02/09 15:27:05;;;;;;;6.57;5.97;;;9.80;99.90;;;;;;4953692;28;20209;-66
2022/02/09 15:29:37;;;;;;;6.05;4.93;;;9.80;99.90;;;;;;4955375;28;20212;-68
2022/02/09 15:32:08;;;;;;;5.88;5.22;;;9.80;99.90;;;;;;4949496;28;20315;-67
2022/02/09 15:34:40;;;;;;;6.45;5.43;;;9.80;99.90;;;;;;4951761;28;20216;-67
2022/02/09 15:37:13;;;;;;;6.88;5.45;;;9.70;99.90;;;;;;4944488;28;20256;-68
2022/02/09 15:39:44;;;;;;;5.25;4.80;;;9.70;99.90;;;;;;4948791;28;20308;-66
2022/02/09 15:58:58;;;;;;;6.95;5.97;;;9.50;99.90;;;;;;4954025;29;20638;-68
2022/02/09 16:09:40;;;;;;;5.40;4.90;;;9.40;99.90;;;;;;4953493;29;20216;-67
2022/02/09 16:23:10;;;;;;;5.45;5.05;;;9.30;99.90;;;;;;4954162;28;20234;-68
2022/02/09 16:25:56;;;;;;;6.70;5.70;;;9.30;99.90;;;;;;4952490;29;20260;-67
2022/02/09 16:34:29;;;;;;;8.15;5.63;;;9.30;99.90;;;;;;4952225;29;20208;-67
2022/02/09 16:37:22;;;;;;;6.57;5.93;;;9.30;99.90;;;;;;4944209;28;20213;-67
2022/02/09 16:45:17;;;;;;;6.40;5.80;;;9.30;99.90;;;;;;4951629;28;20596;-67
2022/02/09 16:47:58;;;;;;;7.18;6.45;;;9.20;99.90;;;;;;4959431;28;20279;-68
2022/02/09 16:50:34;;;;;;;5.28;4.85;;;9.20;99.90;;;;;;4953314;28;20205;-68
2022/02/09 16:53:07;;;;;;;6.35;5.70;;;9.20;99.90;;;;;;4956009;28;20204;-67
2022/02/09 17:20:17;;;;;;;7.93;7.13;;;9.20;99.90;;;;;;4947360;28;20256;-67
2022/02/09 17:22:45;;;;;;;7.35;6.65;;;9.20;99.90;;;;;;4952435;29;20213;-68
2022/02/09 17:25:12;;;;;;;7.85;6.93;;;9.20;99.90;;;;;;4952654;28;20236;-68
2022/02/09 17:27:42;;;;;;;8.45;7.50;;;9.20;99.90;;;;;;4944244;28;20674;-68
2022/02/09 17:30:35;;;;;;;9.02;7.07;;;9.20;99.90;;;;;;4952147;28;20297;-68
2022/02/09 17:33:10;;;;;;;8.57;7.05;;;9.20;99.90;;;;;;4948577;28;20214;-67
2022/02/09 17:35:45;;;;;;;8.98;7.70;;;9.10;99.90;;;;;;4962108;28;20205;-68
2022/02/09 17:38:31;;;;;;;9.15;7.80;;;9.10;99.90;;;;;;4952595;28;20292;-68
2022/02/09 17:55:28;;;;;;;8.18;7.35;;;9.10;99.90;;;;;;4945710;28;20223;-68
2022/02/09 17:58:02;;;;;;;9.10;7.82;;;9.10;99.90;;;;;;4950960;29;20236;-68
2022/02/09 18:00:29;;;;;;;9.63;7.63;;;9.10;99.90;;;;;;4951642;28;20949;-69
2022/02/09 18:02:56;;;;;;;9.88;8.52;;;9.10;99.90;;;;;;4952548;29;20213;-69
2022/02/09 18:05:29;;;;;;;9.10;8.30;;;9.10;99.90;;;;;;4949058;28;20316;-68
2022/02/09 18:07:59;;;;;;;7.60;6.72;;;9.10;99.90;;;;;;4949543;28;20257;-68
2022/02/09 18:10:43;;;;;;;7.65;7.05;;;9.00;99.90;;;;;;4950983;28;20288;-67
2022/02/09 18:13:27;;;;;;;10.07;9.20;;;9.00;99.90;;;;;;4959439;28;20204;-68
2022/02/09 18:29:44;;;;;;;4.00;3.40;;;8.80;99.90;;;;;;4946728;28;20370;-69
2022/02/09 18:32:39;;;;;;;6.00;4.78;;;8.80;99.90;;;;;;4947889;28;20579;-68
2022/02/09 18:38:12;;;;;;;6.07;4.60;;;8.70;99.90;;;;;;4952387;29;20192;-68
2022/02/09 18:41:54;;;;;;;4.25;3.85;;;8.70;99.90;;;;;;4945813;28;20296;-68
2022/02/09 18:44:03;;;;;;;3.92;2.90;;;8.60;99.90;;;;;;4949123;29;20205;-68
2022/02/09 18:46:38;;;;;;;6.97;3.55;;;8.60;99.90;;;;;;4951595;28;20213;-68
2022/02/09 18:58:09;;;;;;;6.82;3.45;;;8.50;99.90;;;;;;4946898;29;20212;-69
2022/02/09 19:03:04;;;;;;;3.53;3.22;;;8.50;99.90;;;;;;4919459;28;20217;-67
2022/02/09 19:05:40;;;;;;;4.10;3.80;;;8.50;99.90;;;;;;4948148;28;20307;-68
2022/02/09 19:08:18;;;;;;;3.45;3.15;;;8.50;99.90;;;;;;4951755;28;20206;-69
2022/02/09 19:19:21;;;;;;;3.17;2.95;;;8.40;99.90;;;;;;4953293;29;20235;-68
2022/02/09 19:27:42;;;;;;;3.08;2.88;;;8.40;99.90;;;;;;4951292;29;20220;-68
2022/02/09 19:30:16;;;;;;;3.25;3.00;;;8.40;99.90;;;;;;4939987;29;20220;-68
2022/02/09 19:33:13;;;;;;;4.50;3.92;;;8.40;99.90;;;;;;4950695;29;20537;-68
2022/02/09 19:47:12;;;;;;;5.55;4.68;;;8.30;99.90;;;;;;4950281;29;20220;-68
2022/02/09 19:52:45;;;;;;;4.28;3.88;;;8.30;99.90;;;;;;4940487;29;20450;-68
2022/02/09 19:55:23;;;;;;;5.30;4.10;;;8.30;99.90;;;;;;4936968;28;20217;-69
2022/02/09 19:57:54;;;;;;;5.68;3.85;;;8.20;99.90;;;;;;4950911;28;20666;-69
2022/02/09 20:00:22;;;;;;;7.18;3.95;;;8.30;99.90;;;;;;4950441;28;20201;-68
2022/02/09 20:02:49;;;;;;;6.13;4.30;;;8.20;99.90;;;;;;4950606;29;20240;-68
2022/02/09 20:05:19;;;;;;;5.65;4.93;;;8.20;99.90;;;;;;4941288;29;20237;-69
2022/02/09 20:07:46;;;;;;;7.35;5.13;;;8.20;99.90;;;;;;4932585;29;20296;-68
2022/02/09 20:10:13;;;;;;;5.07;4.40;;;8.30;99.90;;;;;;4942786;29;20209;-67
2022/02/09 20:12:40;;;;;;;9.65;5.55;;;8.20;99.90;;;;;;4932939;28;20238;-69
2022/02/09 20:15:11;;;;;;;7.82;4.90;;;8.20;99.90;;;;;;4942895;29;20799;-68
2022/02/09 20:17:38;;;;;;;9.43;5.20;;;8.20;99.90;;;;;;4948341;29;20213;-69
2022/02/09 20:20:08;;;;;;;6.40;4.65;;;8.20;99.90;;;;;;4948740;29;20264;-68
2022/02/09 20:22:37;;;;;;;8.65;4.38;;;8.20;99.90;;;;;;4954261;28;20229;-67
2022/02/09 20:25:05;;;;;;;8.43;5.18;;;8.20;99.90;;;;;;4953355;29;20221;-67
2022/02/09 20:27:34;;;;;;;11.68;5.35;;;8.30;99.90;;;;;;4950811;29;20205;-68
2022/02/09 20:30:03;;;;;;;8.07;5.18;;;8.20;99.90;;;;;;4949763;28;20907;-69
2022/02/09 20:32:31;;;;;;;8.23;5.28;;;8.30;99.90;;;;;;4945006;29;20224;-69
2022/02/09 20:35:01;;;;;;;7.15;5.18;;;8.30;99.90;;;;;;4942706;28;20197;-67
2022/02/09 20:37:29;;;;;;;9.10;4.90;;;8.30;99.90;;;;;;4953985;28;20217;-67
2022/02/09 20:40:05;;;;;;;10.13;5.43;;;8.20;99.90;;;;;;4952796;28;20674;-70
2022/02/09 20:42:32;;;;;;;5.60;5.10;;;8.20;99.90;;;;;;4940873;28;20328;-68
2022/02/09 20:45:04;;;;;;;8.32;5.25;;;8.30;99.90;;;;;;4937392;29;20690;-68
2022/02/09 20:47:32;;;;;;;8.43;5.05;;;8.20;99.90;;;;;;4948272;28;20381;-69
2022/02/09 20:49:59;;;;;;;6.43;5.28;;;8.20;99.90;;;;;;4952374;28;20213;-66
2022/02/09 20:52:26;;;;;;;10.80;6.35;;;8.20;99.90;;;;;;4942658;28;20615;-68
2022/02/09 20:54:53;;;;;;;8.48;6.00;;;8.20;99.90;;;;;;4953295;28;20827;-68
2022/02/09 20:57:21;;;;;;;10.93;6.85;;;8.20;99.90;;;;;;4946462;28;20284;-67
2022/02/09 20:59:52;;;;;;;6.53;4.85;;;8.20;99.90;;;;;;4943919;28;20662;-68
2022/02/09 21:02:41;;;;;;;6.95;5.80;;;8.10;99.90;;;;;;4950947;28;20263;-68
2022/02/09 21:05:27;;;;;;;13.15;6.00;;;8.20;99.90;;;;;;4950383;29;20225;-67
2022/02/09 21:08:05;;;;;;;11.30;6.00;;;8.20;99.90;;;;;;4953287;29;20231;-68
2022/02/09 21:10:42;;;;;;;13.98;6.50;;;8.20;99.90;;;;;;4950766;28;20197;-67
2022/02/09 21:13:17;;;;;;;7.72;6.13;;;8.20;99.90;;;;;;4938065;28;20209;-67
2022/02/09 21:15:54;;;;;;;9.15;6.80;;;8.20;99.90;;;;;;4953124;29;20205;-68
2022/02/09 21:21:50;;;;;;;8.70;6.82;;;8.10;99.90;;;;;;4935575;28;20227;-69
2022/02/09 21:33:14;;;;;;;15.68;8.65;;;8.10;99.90;;;;;;4938417;29;20200;-68
2022/02/09 21:49:05;;;;;;;13.20;7.50;;;8.10;99.90;;;;;;4941012;29;20237;-69
2022/02/09 21:53:00;;;;;;;11.23;6.55;;;8.10;99.90;;;;;;4947528;29;20228;-66
2022/02/09 21:55:33;;;;;;;12.60;7.70;;;8.10;99.90;;;;;;4951667;29;20208;-68
2022/02/09 21:58:05;;;;;;;12.05;6.30;;;8.10;99.90;;;;;;4952111;29;20220;-67
